Gray Army Air Field
KGRF : now visible

Airfield :











YOU CAN JOIN US ON...

 
LOGIN :

Register | Disclaimer

   EN    FR    IT 

 









Legend :    VFR   Marginal VFR   IFR   Intensive IFR   Very Intensive IFR
Visi :
Ceiling :
>= 8 km
>= 3000ft
5 to 8 km
1000 to 3000 ft
1500m to 5 km
500 to 1000 ft
800 to 1500m
200 to 500 ft
< 800m
< 200 ft
Symbols :   Thunderstorms  Fog  Heavy snow  Heavy precipitations  Wind > 20 kt






- Airport Elevation : 300 ft


KGRF - Gray Army Air Field

CURRENT METAR :
  • 200658Z AUTO 14004KT 10SM BKN021 BKN046 10/10 A3021 RMK AO2 CIG 021V039 SLP234 T01020100 $

EXPIRED METARs :
  • 200558Z AUTO 17006KT 10SM SCT034 11/11 A3021 RMK AO2 SLP234 T01110109 10150 20111 51007 $
  • 200518Z AUTO 19005KT 10SM SCT021 SCT026 OVC034 12/11 A3021 RMK AO2 SLP234 $
  • 200458Z AUTO 18004KT 10SM OVC022 12/12 A3020 RMK AO2 SLP231 T01190117 $

TAF TAF KGRF
Valid from the 20 at 05:00 until the 21 at 11:00 UTC


200500Z 2005/2111 23010KT 9999 OVC020 QNH3021INS
BECMG 2008/2009 23010KT 9999 OVC015 QNH3023INS
BECMG 2015/2016 23012KT 9999 OVC025 QNH3023INS
BECMG 2019/2020 25010G15KT 9999 VCSH BKN010 BKN030 61604 QNH3022INS
BECMG 2103/2104 26010KT 9999 NSW SCT030 61503 QNH3008INS
BECMG 2107/2108 24010KT 9999 NSW BKN020 61502 QNH3003INS TX14/2021Z TN09/2111Z
KZSE FIR / North America



MET'MAP, your aeronautical weather chart ! - Copyright ORBIFLY December 2007 - Disclaimer

ORBIFLY MET'MAP TEAM :

Programming & Development : Alexandra Zaïnal
Concept & original design : Baudouin d'Aumeries
Assistance for programming : Marc-Olivier Méhu
Technical & hardware support : Manuel Goepfert

Contact : metmap@orbifly.com




SOURCES & CREDITS :

   NOAA       Earth
Advisory